Cicero, New York
Current Conditions -  °F | °C
As of 9:54 PM on Sunday 23 Nov 2014 (Local Time) from KSYR Reporting Station
Overcast Overcast  
Wind Chill: 54°   Ceiling: 20000
Heat Index: 54°   Visibility: 10mi
Dew Point: 33°   Wind: 13mph
Humidity: 45%   Direction: 140°SE
Pressure: 29.86"   Gusts: 20mph
Location:  43.18°N, 76.12°W
Report Text: KSYR 240254Z 14011G17KT 10SM SCT120 OVC200 12/01 A2986 RMK AO2 SLP109 OVC V BKN T01220006 58023 $
Loading
Personal Weather Stations






























Interactive Weather Map New forecast layout! Learn more

10-Day Weather Forecast

Advertisements
Track Severe Weather on mobile